createdAt,value
2018-12-13T00:01:51.018Z,34.92
2018-12-13T00:04:27.041Z,31.73
2018-12-13T00:07:02.827Z,29.23
2018-12-13T00:09:38.880Z,18.73
2018-12-13T00:12:14.961Z,26.30
2018-12-13T00:14:51.100Z,34.47
2018-12-13T00:17:27.139Z,43.07
2018-12-13T00:20:05.333Z,30.17
2018-12-13T00:22:41.347Z,38.47
2018-12-13T00:25:17.534Z,41.10
2018-12-13T00:27:53.526Z,42.30
2018-12-13T00:30:29.455Z,30.80
2018-12-13T00:33:05.606Z,43.27
2018-12-13T00:35:41.599Z,40.30
2018-12-13T00:38:17.405Z,49.37
2018-12-13T00:40:53.733Z,34.30
2018-12-13T00:43:29.831Z,30.60
2018-12-13T00:46:05.862Z,26.80
2018-12-13T00:48:41.955Z,21.77
2018-12-13T00:51:17.843Z,23.20
2018-12-13T00:53:54.097Z,28.90
2018-12-13T00:56:30.393Z,29.20
2018-12-13T00:59:06.534Z,21.33
2018-12-13T01:01:42.833Z,28.50
2018-12-13T01:04:19.421Z,24.03
2018-12-13T01:06:55.589Z,17.80
2018-12-13T01:09:31.653Z,35.27
2018-12-13T01:12:07.687Z,33.33
2018-12-13T01:14:43.769Z,21.33
2018-12-13T01:17:20.143Z,45.03
2018-12-13T01:19:56.211Z,35.23
2018-12-13T01:22:32.236Z,34.93
2018-12-13T01:25:08.802Z,50.30
2018-12-13T01:27:45.104Z,35.73
2018-12-13T01:30:21.089Z,26.97
2018-12-13T01:32:56.975Z,19.73
2018-12-13T01:35:33.191Z,28.60
2018-12-13T01:38:09.237Z,21.03
2018-12-13T01:40:45.603Z,23.73
2018-12-13T01:43:21.647Z,41.40
2018-12-13T01:45:57.724Z,27.40
2018-12-13T01:48:33.768Z,35.63
2018-12-13T01:51:09.836Z,25.70
2018-12-13T01:53:45.879Z,16.20
2018-12-13T01:56:21.980Z,24.13
2018-12-13T01:58:58.017Z,20.70
2018-12-13T02:01:34.093Z,14.37
2018-12-13T02:04:10.121Z,25.17
2018-12-13T02:06:46.185Z,27.13
2018-12-13T02:09:22.263Z,35.13
2018-12-13T02:11:58.332Z,49.47
2018-12-13T02:14:34.844Z,17.73
2018-12-13T02:17:10.775Z,23.57
2018-12-13T02:19:47.099Z,27.57
2018-12-13T02:22:23.196Z,35.27
2018-12-13T02:24:59.560Z,42.87
2018-12-13T02:27:35.616Z,31.67
2018-12-13T02:30:12.446Z,35.33
2018-12-13T02:32:49.323Z,38.30
2018-12-13T02:35:25.331Z,26.00
2018-12-13T02:38:01.386Z,27.70
2018-12-13T02:40:37.948Z,25.77
2018-12-13T02:43:14.138Z,25.73
2018-12-13T02:45:50.160Z,26.60
2018-12-13T02:48:26.247Z,21.83
2018-12-13T02:51:02.277Z,27.30
2018-12-13T02:53:38.378Z,32.70
2018-12-13T02:56:14.390Z,46.40
2018-12-13T02:58:50.167Z,35.00
2018-12-13T03:01:26.144Z,37.93
2018-12-13T03:04:02.290Z,47.60
2018-12-13T03:06:38.327Z,42.03
2018-12-13T03:09:14.415Z,50.57
2018-12-13T03:11:50.469Z,39.60
2018-12-13T03:14:26.554Z,47.30
2018-12-13T03:17:02.692Z,46.30
2018-12-13T03:19:39.024Z,54.53
2018-12-13T03:22:15.068Z,44.33
2018-12-13T03:24:50.990Z,46.83
2018-12-13T03:27:27.131Z,35.77
2018-12-13T03:30:03.725Z,34.53
2018-12-13T03:32:39.733Z,57.07
2018-12-13T03:35:15.733Z,51.13
2018-12-13T03:37:51.986Z,46.57
2018-12-13T03:40:28.369Z,48.27
2018-12-13T03:43:04.438Z,46.90
2018-12-13T03:45:40.487Z,45.67
2018-12-13T03:48:16.539Z,50.80
2018-12-13T03:50:53.111Z,60.20
2018-12-13T03:53:28.963Z,51.87
2018-12-13T03:56:05.062Z,64.50
2018-12-13T03:58:41.426Z,52.90
2018-12-13T04:01:17.483Z,66.97
2018-12-13T04:03:53.499Z,87.67
2018-12-13T04:06:29.625Z,46.87
2018-12-13T04:09:07.529Z,36.47
2018-12-13T04:22:05.550Z,107.80
2018-12-13T04:24:41.689Z,72.57
2018-12-13T04:27:17.775Z,112.87
2018-12-13T04:29:54.310Z,93.70
2018-12-13T04:32:30.224Z,71.80
2018-12-13T04:35:06.389Z,85.67
2018-12-13T04:37:42.624Z,73.23
2018-12-13T04:40:18.661Z,72.33
2018-12-13T04:42:54.750Z,69.40
2018-12-13T04:45:30.783Z,66.77
2018-12-13T04:48:06.729Z,61.67
2018-12-13T04:50:42.905Z,38.33
2018-12-13T04:53:18.980Z,71.87
2018-12-13T04:55:55.150Z,97.10
2018-12-13T04:58:31.572Z,99.23
2018-12-13T05:01:07.526Z,183.30
2018-12-13T05:03:43.520Z,207.67
2018-12-13T05:06:19.570Z,217.33
2018-12-13T05:08:55.683Z,158.60
2018-12-13T05:11:32.087Z,120.30
2018-12-13T05:14:08.736Z,109.07
2018-12-13T05:16:44.697Z,126.50
2018-12-13T05:19:20.837Z,228.57
2018-12-13T05:21:57.176Z,154.17
2018-12-13T05:24:33.318Z,113.20
2018-12-13T05:27:09.266Z,127.03
2018-12-13T05:29:45.153Z,84.23
2018-12-13T05:32:21.432Z,167.27
2018-12-13T05:34:57.806Z,49.25
2018-12-13T05:37:33.987Z,38.73
2018-12-13T05:40:09.916Z,58.57
2018-12-13T05:42:45.940Z,59.93
2018-12-13T05:45:22.049Z,131.53
2018-12-13T05:47:58.096Z,212.70
2018-12-13T05:50:34.158Z,183.40
2018-12-13T05:53:10.203Z,179.70
2018-12-13T05:55:46.280Z,169.07
2018-12-13T05:58:22.097Z,115.33
2018-12-13T06:00:58.121Z,114.23
2018-12-13T06:03:34.754Z,136.23
2018-12-13T06:07:35.145Z,70.27
2018-12-13T06:10:13.512Z,128.30
2018-12-13T06:12:49.591Z,110.47
2018-12-13T06:15:25.617Z,103.27
2018-12-13T06:18:06.800Z,178.33
2018-12-13T06:20:48.112Z,263.53
2018-12-13T06:23:24.053Z,173.33
2018-12-13T06:26:00.002Z,94.50
2018-12-13T06:28:36.110Z,74.93
2018-12-13T06:31:12.111Z,164.83
2018-12-13T06:33:48.205Z,100.57
2018-12-13T06:36:27.006Z,80.20
2018-12-13T06:39:04.240Z,76.17
2018-12-13T06:41:40.353Z,96.37
2018-12-13T06:44:17.069Z,100.83
2018-12-13T06:46:53.672Z,97.57
2018-12-13T06:49:29.782Z,61.80
2018-12-13T06:52:05.818Z,139.87
2018-12-13T06:54:41.916Z,152.33
2018-12-13T06:57:18.248Z,152.57
2018-12-13T06:59:54.360Z,125.47
2018-12-13T07:02:30.604Z,173.13
2018-12-13T07:05:07.314Z,125.17
2018-12-13T07:07:43.422Z,91.73
2018-12-13T07:10:19.560Z,136.93
2018-12-13T07:12:55.860Z,190.53
2018-12-13T07:15:31.921Z,176.07
2018-12-13T07:18:07.949Z,208.80
2018-12-13T07:20:43.738Z,164.07
2018-12-13T07:23:19.761Z,142.57
2018-12-13T07:25:55.966Z,127.27
2018-12-13T07:28:31.885Z,177.83
2018-12-13T07:31:07.997Z,152.10
2018-12-13T07:33:44.042Z,186.40
2018-12-13T07:36:20.590Z,132.30
2018-12-13T07:38:57.962Z,122.30
2018-12-13T07:41:35.206Z,73.67
2018-12-13T07:44:11.321Z,77.90
2018-12-13T07:46:47.403Z,97.83
2018-12-13T07:49:23.449Z,99.10
2018-12-13T07:51:59.556Z,70.17
2018-12-13T07:54:38.034Z,94.17
2018-12-13T07:57:14.190Z,99.77
2018-12-13T07:59:50.125Z,138.97
2018-12-13T08:02:25.983Z,104.50
2018-12-13T08:05:01.962Z,95.80
2018-12-13T08:07:38.083Z,103.50
2018-12-13T08:10:14.057Z,102.33
2018-12-13T08:12:51.233Z,101.20
2018-12-13T08:15:27.141Z,164.53
2018-12-13T08:18:03.226Z,112.37
2018-12-13T08:20:39.265Z,117.60
2018-12-13T08:23:15.434Z,106.70
2018-12-13T08:25:51.430Z,133.17
2018-12-13T08:28:27.777Z,120.20
2018-12-13T08:38:10.011Z,157.93
2018-12-13T08:40:47.243Z,125.60
2018-12-13T08:43:23.327Z,139.20
2018-12-13T08:45:59.378Z,120.03
2018-12-13T08:48:35.793Z,103.63
2018-12-13T08:51:12.640Z,121.93
2018-12-13T08:53:48.741Z,228.07
2018-12-13T08:56:25.135Z,170.40
2018-12-13T08:59:01.258Z,107.53
2018-12-13T09:01:37.485Z,128.17
2018-12-13T09:04:13.767Z,104.87
2018-12-13T09:06:49.582Z,98.60
2018-12-13T09:09:25.714Z,92.07
2018-12-13T09:12:01.729Z,102.67
2018-12-13T09:14:37.827Z,81.30
2018-12-13T09:17:13.978Z,123.47
2018-12-13T09:19:50.337Z,139.57
2018-12-13T09:22:26.605Z,113.20
2018-12-13T09:25:02.688Z,122.67
2018-12-13T09:27:38.709Z,114.00
2018-12-13T09:30:15.325Z,77.23
2018-12-13T09:32:51.459Z,42.13
2018-12-13T09:35:27.886Z,96.37
2018-12-13T09:38:04.179Z,120.50
2018-12-13T09:40:40.282Z,101.53
2018-12-13T09:43:16.418Z,108.10
2018-12-13T09:45:52.427Z,112.50
2018-12-13T09:48:28.435Z,100.43
2018-12-13T09:51:04.597Z,83.47
2018-12-13T09:53:40.546Z,85.90
2018-12-13T09:56:16.646Z,94.07
2018-12-13T09:58:52.675Z,113.20
2018-12-13T10:01:28.766Z,118.17
2018-12-13T10:04:04.821Z,107.30
2018-12-13T10:06:40.933Z,81.73
2018-12-13T10:09:16.773Z,62.13
2018-12-13T10:11:53.014Z,81.50
2018-12-13T10:14:29.022Z,88.87
2018-12-13T10:17:05.278Z,90.40
2018-12-13T10:19:41.471Z,92.13
2018-12-13T10:22:17.661Z,82.63
2018-12-13T10:24:53.870Z,97.47
2018-12-13T10:27:29.821Z,104.60
2018-12-13T10:30:06.749Z,69.47
2018-12-13T10:32:43.041Z,68.73
2018-12-13T10:35:19.228Z,60.53
2018-12-13T10:37:55.538Z,90.57
2018-12-13T10:40:31.780Z,47.60
2018-12-13T10:43:07.874Z,47.40
2018-12-13T10:45:44.362Z,48.50
2018-12-13T10:48:20.312Z,36.13
2018-12-13T10:50:56.303Z,41.37
2018-12-13T10:53:32.491Z,52.80
2018-12-13T10:56:08.457Z,94.57
2018-12-13T10:58:44.559Z,75.43
2018-12-13T11:01:25.755Z,77.80
2018-12-13T11:04:01.893Z,81.43
2018-12-13T11:06:37.899Z,81.53
2018-12-13T11:09:14.156Z,66.37
2018-12-13T11:11:50.346Z,51.40
2018-12-13T11:14:26.168Z,55.10
2018-12-13T11:17:02.129Z,48.53
2018-12-13T11:19:38.259Z,85.63
2018-12-13T11:22:14.607Z,70.20
2018-12-13T11:24:50.775Z,31.40
2018-12-13T11:29:39.913Z,22.67
2018-12-13T11:32:16.590Z,25.97
2018-12-13T11:34:52.382Z,34.87
2018-12-13T11:37:28.589Z,37.47
2018-12-13T11:40:04.723Z,27.83
2018-12-13T11:42:41.012Z,26.87
2018-12-13T11:45:17.039Z,64.57
2018-12-13T11:47:53.138Z,20.63
2018-12-13T11:50:29.138Z,24.80
2018-12-13T11:53:05.242Z,30.17
2018-12-13T11:55:41.291Z,35.57
2018-12-13T11:58:17.787Z,43.47
2018-12-13T12:00:53.983Z,29.77
2018-12-13T12:03:30.091Z,36.50
2018-12-13T12:06:06.103Z,36.13
2018-12-13T12:08:42.237Z,33.30
2018-12-13T12:11:18.643Z,28.03
2018-12-13T12:13:54.737Z,43.77
2018-12-13T12:16:30.699Z,27.20
2018-12-13T12:19:06.789Z,33.30
2018-12-13T12:21:42.791Z,30.97
2018-12-13T12:24:18.885Z,42.20
2018-12-13T12:26:54.897Z,19.63
2018-12-13T12:29:31.058Z,45.43
2018-12-13T12:32:07.036Z,46.53
2018-12-13T12:34:43.035Z,41.17
2018-12-13T12:37:19.146Z,51.30
2018-12-13T12:39:55.210Z,50.73
2018-12-13T12:42:31.288Z,81.93
2018-12-13T12:45:08.639Z,63.67
2018-12-13T12:47:44.625Z,106.53
2018-12-13T12:50:20.774Z,49.47
2018-12-13T12:52:56.722Z,60.03
2018-12-13T12:55:32.859Z,104.17
2018-12-13T12:58:08.831Z,64.67
2018-12-13T13:00:44.973Z,93.40
2018-12-13T13:03:20.961Z,95.67
2018-12-13T13:05:57.075Z,80.50
2018-12-13T13:08:33.097Z,60.77
2018-12-13T13:11:09.431Z,61.57
2018-12-13T13:13:45.535Z,45.47
2018-12-13T13:16:22.029Z,52.63
2018-12-13T13:18:57.918Z,73.60
2018-12-13T13:21:34.598Z,66.23
2018-12-13T13:24:10.653Z,65.27
2018-12-13T13:26:46.802Z,72.30
2018-12-13T13:29:22.780Z,82.37
2018-12-13T13:31:59.345Z,98.20
2018-12-13T13:34:35.565Z,130.97
2018-12-13T13:37:11.959Z,169.03
2018-12-13T13:39:47.965Z,155.23
2018-12-13T13:42:24.083Z,155.57
2018-12-13T13:45:02.679Z,171.63
2018-12-13T13:47:41.549Z,138.83
2018-12-13T13:50:18.718Z,130.87
2018-12-13T13:52:54.690Z,189.80
2018-12-13T13:55:30.551Z,173.87
2018-12-13T13:58:06.571Z,149.80
2018-12-13T14:00:42.601Z,154.33
2018-12-13T14:03:19.129Z,170.67
2018-12-13T14:05:55.368Z,187.17
2018-12-13T14:08:31.912Z,194.07
2018-12-13T14:11:08.081Z,181.37
2018-12-13T14:13:44.995Z,192.93
2018-12-13T14:16:20.857Z,156.23
2018-12-13T14:18:56.988Z,124.53
2018-12-13T14:21:32.928Z,102.20
2018-12-13T14:24:09.054Z,118.73
2018-12-13T14:26:45.067Z,180.00
2018-12-13T14:29:21.150Z,198.60
2018-12-13T14:31:57.209Z,173.00
2018-12-13T14:34:33.677Z,277.17
2018-12-13T14:37:09.605Z,210.37
2018-12-13T14:39:45.571Z,218.43
2018-12-13T14:42:21.749Z,139.87
2018-12-13T14:45:03.234Z,118.93
2018-12-13T14:47:39.398Z,134.40
2018-12-13T14:50:15.550Z,135.13
2018-12-13T14:52:51.826Z,180.93
2018-12-13T14:55:28.015Z,238.43
2018-12-13T14:58:04.310Z,476.40
2018-12-13T15:00:41.456Z,750.73
2018-12-13T15:03:17.846Z,693.97
2018-12-13T15:05:54.106Z,522.17
2018-12-13T15:08:30.341Z,449.47
2018-12-13T15:11:06.818Z,320.50
2018-12-13T15:13:42.790Z,214.17
2018-12-13T15:16:18.900Z,356.47
2018-12-13T15:18:55.192Z,274.93
2018-12-13T15:21:32.314Z,314.27
2018-12-13T15:24:08.552Z,311.90
2018-12-13T15:26:44.605Z,304.20
2018-12-13T15:29:20.640Z,318.70
2018-12-13T15:31:59.496Z,376.37
2018-12-13T15:34:34.917Z,263.70
2018-12-13T15:37:11.101Z,205.53
2018-12-13T15:39:47.340Z,180.57
2018-12-13T15:42:23.445Z,140.17
2018-12-13T15:44:59.470Z,162.90
2018-12-13T15:47:35.536Z,161.60
2018-12-13T15:50:11.626Z,165.83
2018-12-13T15:52:48.428Z,117.67
2018-12-13T15:55:24.673Z,76.23
2018-12-13T15:58:01.177Z,79.43
2018-12-13T16:00:37.038Z,97.50
2018-12-13T16:03:13.157Z,95.57
2018-12-13T16:05:49.160Z,106.30
2018-12-13T16:08:25.847Z,136.20
2018-12-13T16:11:01.915Z,149.20
2018-12-13T16:13:37.921Z,168.87
2018-12-13T16:16:14.024Z,162.57
2018-12-13T16:18:50.184Z,213.80
2018-12-13T16:21:26.177Z,248.20
2018-12-13T16:24:02.686Z,247.03
2018-12-13T16:26:38.587Z,258.07
2018-12-13T16:29:14.691Z,279.83
2018-12-13T16:31:50.712Z,241.27
2018-12-13T16:34:27.127Z,239.27
2018-12-13T16:37:03.125Z,202.00
2018-12-13T16:39:39.183Z,212.77
2018-12-13T16:42:15.280Z,226.97
2018-12-13T16:44:53.728Z,233.43
2018-12-13T16:47:29.544Z,173.07
2018-12-13T16:50:06.858Z,159.80
2018-12-13T16:52:42.915Z,156.10
2018-12-13T16:55:19.093Z,155.43
2018-12-13T16:57:55.308Z,145.77
2018-12-13T17:00:31.504Z,139.67
2018-12-13T17:03:42.736Z,173.13
2018-12-13T17:06:18.899Z,338.07
2018-12-13T17:08:54.868Z,258.20
2018-12-13T17:11:31.104Z,186.13
2018-12-13T17:14:07.345Z,157.27
2018-12-13T17:16:50.001Z,116.27
2018-12-13T17:19:26.413Z,189.43
2018-12-13T17:22:02.780Z,441.23
2018-12-13T17:24:38.925Z,333.83
2018-12-13T17:27:15.302Z,318.97
2018-12-13T17:29:51.392Z,320.23
2018-12-13T17:32:27.262Z,203.17
2018-12-13T17:35:03.570Z,202.50
2018-12-13T17:37:39.830Z,215.93
2018-12-13T17:40:15.910Z,281.03
2018-12-13T17:42:52.046Z,477.63
2018-12-13T17:45:30.049Z,298.53
2018-12-13T17:48:06.320Z,266.17
2018-12-13T17:50:42.657Z,232.90
2018-12-13T17:53:19.533Z,248.40
2018-12-13T17:55:55.719Z,224.30
2018-12-13T17:58:31.760Z,205.00
2018-12-13T18:01:07.854Z,190.03
2018-12-13T18:03:43.939Z,254.13
2018-12-13T18:06:19.971Z,247.33
2018-12-13T18:08:56.313Z,193.13
2018-12-13T18:11:32.341Z,407.47
2018-12-13T18:14:08.422Z,187.70
2018-12-13T18:16:44.716Z,217.77
2018-12-13T18:19:20.819Z,191.80
2018-12-13T18:21:56.581Z,224.37
2018-12-13T18:24:32.692Z,224.90
2018-12-13T18:27:08.679Z,284.00
2018-12-13T18:29:45.124Z,310.73
2018-12-13T18:32:21.420Z,379.70
2018-12-13T18:35:00.051Z,390.77
2018-12-13T18:37:35.833Z,378.40
2018-12-13T18:40:11.807Z,375.20
2018-12-13T18:42:48.661Z,343.10
2018-12-13T18:45:25.171Z,309.73
2018-12-13T18:48:01.157Z,253.53
2018-12-13T18:50:37.546Z,351.93
2018-12-13T18:53:13.599Z,257.87
2018-12-13T18:55:49.652Z,194.87
2018-12-13T18:58:25.991Z,224.13
2018-12-13T19:01:02.443Z,190.53
2018-12-13T19:03:38.775Z,219.27
2018-12-13T19:06:14.928Z,279.53
2018-12-13T19:08:51.175Z,240.37
2018-12-13T19:11:27.682Z,228.00
2018-12-13T19:14:04.493Z,292.47
2018-12-13T19:16:41.651Z,298.00
2018-12-13T19:19:17.818Z,305.17
2018-12-13T19:21:53.994Z,311.47
2018-12-13T19:24:30.598Z,314.30
2018-12-13T19:27:06.676Z,303.63
2018-12-13T19:29:42.410Z,283.90
2018-12-13T19:32:18.889Z,284.37
2018-12-13T19:35:00.275Z,370.20
2018-12-13T19:37:33.382Z,311.90
2018-12-13T19:40:09.895Z,270.50
2018-12-13T19:42:49.194Z,272.30
2018-12-13T19:45:25.217Z,274.80
2018-12-13T19:48:01.347Z,285.73
2018-12-13T19:50:37.953Z,299.60
2018-12-13T19:53:14.432Z,291.00
2018-12-13T19:55:50.394Z,260.23
2018-12-13T19:58:26.166Z,285.00
2018-12-13T20:01:02.215Z,299.50
2018-12-13T20:03:38.891Z,328.77
2018-12-13T20:06:15.310Z,345.93
2018-12-13T20:08:51.630Z,258.43
2018-12-13T20:11:27.658Z,260.70
2018-12-13T20:14:03.816Z,313.70
2018-12-13T20:16:39.767Z,275.97
2018-12-13T20:19:15.634Z,271.33
2018-12-13T20:21:51.905Z,277.23
2018-12-13T20:24:28.323Z,258.70
2018-12-13T20:27:06.270Z,284.27
2018-12-13T20:29:43.882Z,281.67
2018-12-13T20:32:21.249Z,310.87
2018-12-13T20:34:58.275Z,291.43
2018-12-13T20:37:34.526Z,295.17
2018-12-13T20:40:10.532Z,313.10
2018-12-13T20:42:46.276Z,410.97
2018-12-13T20:45:23.334Z,401.47
2018-12-13T20:47:59.309Z,406.97
2018-12-13T20:50:35.415Z,373.47
2018-12-13T20:53:11.458Z,376.90
2018-12-13T20:55:47.721Z,339.30
2018-12-13T20:58:23.915Z,350.67
2018-12-13T21:01:00.137Z,435.70
2018-12-13T21:03:36.397Z,359.13
2018-12-13T21:06:13.339Z,387.27
2018-12-13T21:08:49.386Z,391.53
2018-12-13T21:11:28.211Z,353.50
2018-12-13T21:14:04.623Z,382.90
2018-12-13T21:16:40.901Z,323.00
2018-12-13T21:19:16.897Z,207.67
2018-12-13T21:21:53.257Z,190.07
2018-12-13T21:24:29.318Z,169.40
2018-12-13T21:27:05.462Z,168.73
2018-12-13T21:29:41.332Z,173.07
2018-12-13T21:32:17.235Z,185.87
2018-12-13T21:34:53.141Z,213.60
2018-12-13T21:37:29.798Z,210.70
2018-12-13T21:40:07.529Z,213.60
2018-12-13T21:42:43.554Z,214.73
2018-12-13T21:45:19.690Z,200.33
2018-12-13T21:47:56.097Z,199.80
2018-12-13T21:50:32.774Z,179.23
2018-12-13T21:53:09.265Z,220.30
2018-12-13T21:55:47.789Z,214.67
2018-12-13T21:58:26.063Z,221.47
2018-12-13T22:01:04.055Z,213.43
2018-12-13T22:03:40.693Z,206.60
2018-12-13T22:06:18.667Z,205.37
2018-12-13T22:08:56.683Z,225.77
2018-12-13T22:11:33.154Z,241.30
2018-12-13T22:14:10.683Z,219.40
2018-12-13T22:16:47.707Z,186.13
2018-12-13T22:19:25.396Z,182.67
2018-12-13T22:22:01.973Z,173.97
2018-12-13T22:24:38.307Z,193.27
2018-12-13T22:30:12.053Z,202.27
2018-12-13T22:32:48.670Z,280.20
2018-12-13T22:35:24.981Z,254.97
2018-12-13T22:38:01.403Z,290.30
2018-12-13T22:40:38.548Z,334.13
2018-12-13T22:43:20.447Z,368.87
2018-12-13T22:45:55.201Z,388.13
2018-12-13T22:48:33.195Z,391.83
2018-12-13T22:51:12.390Z,366.13
2018-12-13T22:53:49.510Z,396.60
2018-12-13T22:56:30.534Z,386.30
2018-12-13T22:59:06.832Z,371.03
2018-12-13T23:01:45.668Z,362.73
2018-12-13T23:04:30.249Z,312.40
2018-12-13T23:07:10.083Z,304.20
2018-12-13T23:09:48.314Z,305.87
2018-12-13T23:12:27.308Z,271.00
2018-12-13T23:15:04.470Z,343.43
2018-12-13T23:17:41.447Z,344.70
2018-12-13T23:20:18.624Z,294.63
2018-12-13T23:22:55.309Z,281.67
2018-12-13T23:25:32.326Z,241.93
2018-12-13T23:28:10.196Z,234.60
2018-12-13T23:30:49.660Z,179.40
2018-12-13T23:33:28.373Z,229.30
2018-12-13T23:36:06.053Z,181.57
2018-12-13T23:38:44.799Z,160.30
2018-12-13T23:41:21.641Z,113.43
2018-12-13T23:44:00.420Z,107.53
2018-12-13T23:46:37.019Z,109.83
2018-12-13T23:49:14.311Z,112.80
2018-12-13T23:51:51.417Z,101.50
2018-12-13T23:54:27.868Z,103.80
2018-12-13T23:57:05.354Z,96.80
2018-12-13T23:59:45.305Z,97.47
